Time;durP1;ratioP1;P1;durP2;ratioP2;P2;SDS_P1;SDS_P2;PMS_P1;PMS_P2;Temp;Humidity;BMP_temperature;BMP_pressure;BME280_temperature;BME280_humidity;BME280_pressure;Samples;Min_cycle;Max_cycle;Signal;HPM_P1;HPM_P2
2021/07/19 09:05:08;;;;;;;0;0;;;;;;;0;0;0;;;;
2021/07/19 09:06:11;;;;;;;0;0;;;;;;;0;0;0;;;;
2021/07/19 09:07:12;;;;;;;0;0;;;;;;;0;0;0;;;;
2021/07/19 09:08:13;;;;;;;0;0;;;;;;;0;0;0;;;;
2021/07/19 09:09:13;;;;;;;0;0;;;;;;;0;0;0;;;;
2021/07/19 09:10:14;;;;;;;0;0;;;;;;;0;0;0;;;;
2021/07/19 09:11:15;;;;;;;0;0;;;;;;;0;0;0;;;;
2021/07/19 09:12:16;;;;;;;0;0;;;;;;;0;0;0;;;;
2021/07/19 09:13:28;;;;;;;0;0;;;;;;;0;0;0;;;;
2021/07/19 09:14:30;;;;;;;0;0;;;;;;;0;0;0;;;;
2021/07/19 09:15:31;;;;;;;0;0;;;;;;;0;0;0;;;;
2021/07/19 09:16:34;;;;;;;0;0;;;;;;;0;0;0;;;;
2021/07/19 09:17:39;;;;;;;0;0;;;;;;;0;0;0;;;;
2021/07/19 09:18:40;;;;;;;0;0;;;;;;;0;0;0;;;;
2021/07/19 09:19:40;;;;;;;0;0;;;;;;;0;0;0;;;;
2021/07/19 09:20:42;;;;;;;0;0;;;;;;;0;0;0;;;;
2021/07/19 09:21:43;;;;;;;0;0;;;;;;;0;0;0;;;;
2021/07/19 09:22:45;;;;;;;0;0;;;;;;;0;0;0;;;;
2021/07/19 09:23:53;;;;;;;0;0;;;;;;;0;0;0;;;;
2021/07/19 09:25:01;;;;;;;0;0;;;;;;;0;0;0;;;;
2021/07/19 09:26:12;;;;;;;0;0;;;;;;;0;0;0;;;;
2021/07/19 09:27:13;;;;;;;0;0;;;;;;;0;0;0;;;;
2021/07/19 09:28:17;;;;;;;0;0;;;;;;;0;0;0;;;;
2021/07/19 09:29:19;;;;;;;0;0;;;;;;;0;0;0;;;;
2021/07/19 09:30:22;;;;;;;0;0;;;;;;;0;0;0;;;;
2021/07/19 09:31:24;;;;;;;0;0;;;;;;;0;0;0;;;;
2021/07/19 09:32:32;;;;;;;0;0;;;;;;;0;0;0;;;;
2021/07/19 09:33:34;;;;;;;0;0;;;;;;;0;0;0;;;;
2021/07/19 09:34:36;;;;;;;0;0;;;;;;;0;0;0;;;;
2021/07/19 09:35:37;;;;;;;0;0;;;;;;;0;0;0;;;;
2021/07/19 09:36:39;;;;;;;0;0;;;;;;;0;0;0;;;;
2021/07/19 09:37:55;;;;;;;0;0;;;;;;;0;0;0;;;;
2021/07/19 09:39:02;;;;;;;0;0;;;;;;;0;0;0;;;;
2021/07/19 09:40:06;;;;;;;0;0;;;;;;;0;0;0;;;;
2021/07/19 09:41:08;;;;;;;0;0;;;;;;;0;0;0;;;;
2021/07/19 09:42:08;;;;;;;0;0;;;;;;;0;0;0;;;;
2021/07/19 09:43:13;;;;;;;0;0;;;;;;;0;0;0;;;;
2021/07/19 09:44:15;;;;;;;0;0;;;;;;;0;0;0;;;;
2021/07/19 09:45:15;;;;;;;0;0;;;;;;;0;0;0;;;;
2021/07/19 09:46:23;;;;;;;0;0;;;;;;;0;0;0;;;;
2021/07/19 09:47:30;;;;;;;0;0;;;;;;;0;0;0;;;;
2021/07/19 09:48:33;;;;;;;0;0;;;;;;;0;0;0;;;;
2021/07/19 09:49:34;;;;;;;0;0;;;;;;;0;0;0;;;;
2021/07/19 09:50:36;;;;;;;0;0;;;;;;;0;0;0;;;;
2021/07/19 09:51:41;;;;;;;0;0;;;;;;;0;0;0;;;;
2021/07/19 09:52:42;;;;;;;0;0;;;;;;;0;0;0;;;;
2021/07/19 09:53:44;;;;;;;0;0;;;;;;;0;0;0;;;;
2021/07/19 09:54:45;;;;;;;0;0;;;;;;;0;0;0;;;;
2021/07/19 09:55:46;;;;;;;0;0;;;;;;;0;0;0;;;;
2021/07/19 09:56:47;;;;;;;0;0;;;;;;;0;0;0;;;;
2021/07/19 09:57:56;;;;;;;0;0;;;;;;;0;0;0;;;;
2021/07/19 09:58:58;;;;;;;0;0;;;;;;;0;0;0;;;;
2021/07/19 10:00:05;;;;;;;0;0;;;;;;;0;0;0;;;;
2021/07/19 10:01:07;;;;;;;0;0;;;;;;;0;0;0;;;;
2021/07/19 10:02:08;;;;;;;0;0;;;;;;;0;0;0;;;;
2021/07/19 10:03:08;;;;;;;0;0;;;;;;;0;0;0;;;;
2021/07/19 10:04:11;;;;;;;0;0;;;;;;;0;0;0;;;;
2021/07/19 10:05:12;;;;;;;0;0;;;;;;;0;0;0;;;;
2021/07/19 10:06:24;;;;;;;0;0;;;;;;;0;0;0;;;;
2021/07/19 10:07:28;;;;;;;0;0;;;;;;;0;0;0;;;;
2021/07/19 10:08:28;;;;;;;0;0;;;;;;;0;0;0;;;;
2021/07/19 10:09:29;;;;;;;0;0;;;;;;;0;0;0;;;;
2021/07/19 10:10:36;;;;;;;0;0;;;;;;;0;0;0;;;;
2021/07/19 10:11:40;;;;;;;0;0;;;;;;;0;0;0;;;;
2021/07/19 10:12:42;;;;;;;0;0;;;;;;;0;0;0;;;;
2021/07/19 10:13:43;;;;;;;0;0;;;;;;;0;0;0;;;;
2021/07/19 10:14:47;;;;;;;0;0;;;;;;;0;0;0;;;;
2021/07/19 10:15:49;;;;;;;0;0;;;;;;;0;0;0;;;;
2021/07/19 10:16:51;;;;;;;0;0;;;;;;;0;0;0;;;;
2021/07/19 10:17:52;;;;;;;0;0;;;;;;;0;0;0;;;;
2021/07/19 10:18:54;;;;;;;0;0;;;;;;;0;0;0;;;;
2021/07/19 10:19:56;;;;;;;0;0;;;;;;;0;0;0;;;;
2021/07/19 10:20:56;;;;;;;0;0;;;;;;;0;0;0;;;;
2021/07/19 10:21:57;;;;;;;0;0;;;;;;;0;0;0;;;;
2021/07/19 10:22:59;;;;;;;0;0;;;;;;;0;0;0;;;;
2021/07/19 10:24:00;;;;;;;0;0;;;;;;;0;0;0;;;;
2021/07/19 10:25:03;;;;;;;0;0;;;;;;;0;0;0;;;;
2021/07/19 10:26:05;;;;;;;0;0;;;;;;;0;0;0;;;;
2021/07/19 10:27:06;;;;;;;0;0;;;;;;;0;0;0;;;;
2021/07/19 10:28:11;;;;;;;0;0;;;;;;;0;0;0;;;;
2021/07/19 10:29:13;;;;;;;0;0;;;;;;;0;0;0;;;;
2021/07/19 10:30:15;;;;;;;0;0;;;;;;;0;0;0;;;;
2021/07/19 10:31:17;;;;;;;0;0;;;;;;;0;0;0;;;;
2021/07/19 10:32:18;;;;;;;0;0;;;;;;;0;0;0;;;;
2021/07/19 10:33:20;;;;;;;0;0;;;;;;;0;0;0;;;;
2021/07/19 10:34:21;;;;;;;0;0;;;;;;;0;0;0;;;;
2021/07/19 10:35:23;;;;;;;0;0;;;;;;;0;0;0;;;;
2021/07/19 10:36:27;;;;;;;0;0;;;;;;;0;0;0;;;;
2021/07/19 10:37:32;;;;;;;0;0;;;;;;;0;0;0;;;;
2021/07/19 10:38:37;;;;;;;0;0;;;;;;;0;0;0;;;;
2021/07/19 10:39:40;;;;;;;0;0;;;;;;;0;0;0;;;;
2021/07/19 10:40:43;;;;;;;0;0;;;;;;;0;0;0;;;;
2021/07/19 10:41:44;;;;;;;0;0;;;;;;;0;0;0;;;;
2021/07/19 10:42:47;;;;;;;0;0;;;;;;;0;0;0;;;;
2021/07/19 10:43:48;;;;;;;0;0;;;;;;;0;0;0;;;;
2021/07/19 10:44:58;;;;;;;0;0;;;;;;;0;0;0;;;;
2021/07/19 10:46:07;;;;;;;0;0;;;;;;;0;0;0;;;;
2021/07/19 10:47:09;;;;;;;0;0;;;;;;;0;0;0;;;;
2021/07/19 10:48:12;;;;;;;0;0;;;;;;;0;0;0;;;;
2021/07/19 10:49:25;;;;;;;0;0;;;;;;;0;0;0;;;;
2021/07/19 10:50:29;;;;;;;0;0;;;;;;;0;0;0;;;;
2021/07/19 10:51:39;;;;;;;0;0;;;;;;;0;0;0;;;;
2021/07/19 10:52:42;;;;;;;0;0;;;;;;;0;0;0;;;;
2021/07/19 10:53:43;;;;;;;0;0;;;;;;;0;0;0;;;;
2021/07/19 10:54:44;;;;;;;0;0;;;;;;;0;0;0;;;;
2021/07/19 10:55:47;;;;;;;0;0;;;;;;;0;0;0;;;;
2021/07/19 10:57:05;;;;;;;0;0;;;;;;;0;0;0;;;;
2021/07/19 10:58:08;;;;;;;0;0;;;;;;;0;0;0;;;;
2021/07/19 10:59:15;;;;;;;0;0;;;;;;;0;0;0;;;;
2021/07/19 11:00:25;;;;;;;0;0;;;;;;;0;0;0;;;;
2021/07/19 11:01:26;;;;;;;0;0;;;;;;;0;0;0;;;;
2021/07/19 11:02:29;;;;;;;0;0;;;;;;;0;0;0;;;;
2021/07/19 11:03:30;;;;;;;0;0;;;;;;;0;0;0;;;;
2021/07/19 11:04:37;;;;;;;0;0;;;;;;;0;0;0;;;;
2021/07/19 11:05:45;;;;;;;0;0;;;;;;;0;0;0;;;;
2021/07/19 11:06:56;;;;;;;0;0;;;;;;;0;0;0;;;;
2021/07/19 11:07:57;;;;;;;0;0;;;;;;;0;0;0;;;;
2021/07/19 11:08:57;;;;;;;0;0;;;;;;;0;0;0;;;;
2021/07/19 11:09:59;;;;;;;0;0;;;;;;;0;0;0;;;;
2021/07/19 11:11:00;;;;;;;0;0;;;;;;;0;0;0;;;;
2021/07/19 11:12:00;;;;;;;0;0;;;;;;;0;0;0;;;;
2021/07/19 11:13:11;;;;;;;0;0;;;;;;;0;0;0;;;;
2021/07/19 11:14:24;;;;;;;0;0;;;;;;;0;0;0;;;;
2021/07/19 11:15:25;;;;;;;0;0;;;;;;;0;0;0;;;;
2021/07/19 11:16:35;;;;;;;0;0;;;;;;;0;0;0;;;;
2021/07/19 11:17:40;;;;;;;0;0;;;;;;;0;0;0;;;;
2021/07/19 11:18:40;;;;;;;0;0;;;;;;;0;0;0;;;;
2021/07/19 11:19:55;;;;;;;0;0;;;;;;;0;0;0;;;;
2021/07/19 11:20:56;;;;;;;0;0;;;;;;;0;0;0;;;;
2021/07/19 11:21:59;;;;;;;0;0;;;;;;;0;0;0;;;;
2021/07/19 11:23:05;;;;;;;0;0;;;;;;;0;0;0;;;;
2021/07/19 11:24:06;;;;;;;0;0;;;;;;;0;0;0;;;;
2021/07/19 11:25:09;;;;;;;0;0;;;;;;;0;0;0;;;;
2021/07/19 11:26:12;;;;;;;0;0;;;;;;;0;0;0;;;;
2021/07/19 11:27:22;;;;;;;0;0;;;;;;;0;0;0;;;;
2021/07/19 11:28:33;;;;;;;0;0;;;;;;;0;0;0;;;;
2021/07/19 11:29:41;;;;;;;0;0;;;;;;;0;0;0;;;;
2021/07/19 11:30:42;;;;;;;0;0;;;;;;;0;0;0;;;;
2021/07/19 11:31:48;;;;;;;0;0;;;;;;;0;0;0;;;;
2021/07/19 11:33:04;;;;;;;0;0;;;;;;;0;0;0;;;;
2021/07/19 11:34:09;;;;;;;0;0;;;;;;;0;0;0;;;;
2021/07/19 11:35:10;;;;;;;3.7;3.2;;;;;;;31.24;96.41406;95393.16;;;;
2021/07/19 11:36:13;;;;;;;3.7;3.2;;;;;;;31.24;96.41406;95393.16;;;;
2021/07/19 11:37:18;;;;;;;3.7;3.2;;;;;;;31.24;96.41406;95393.16;;;;
2021/07/19 11:38:19;;;;;;;3.7;3.2;;;;;;;31.24;96.41406;95393.16;;;;
2021/07/19 11:39:19;;;;;;;3.7;3.2;;;;;;;31.24;96.41406;95393.16;;;;
2021/07/19 11:40:21;;;;;;;3.7;3.2;;;;;;;31.24;96.41406;95393.16;;;;
2021/07/19 11:41:29;;;;;;;3.7;3.2;;;;;;;31.24;96.41406;95393.16;;;;
2021/07/19 11:42:32;;;;;;;3.7;3.2;;;;;;;31.24;96.41406;95393.16;;;;
2021/07/19 11:43:35;;;;;;;3.7;3.2;;;;;;;31.24;96.41406;95393.16;;;;
2021/07/19 11:44:37;;;;;;;3.7;3.2;;;;;;;31.24;96.41406;95393.16;;;;
2021/07/19 11:45:38;;;;;;;3.7;3.2;;;;;;;31.24;96.41406;95393.16;;;;
2021/07/19 11:46:41;;;;;;;3.7;3.4;;;;;;;31.01;89.43457;95387.87;;;;
2021/07/19 11:47:42;;;;;;;3.7;3.4;;;;;;;31.01;89.43457;95387.87;;;;
2021/07/19 11:48:45;;;;;;;3.7;3.4;;;;;;;31.01;89.43457;95387.87;;;;
2021/07/19 11:49:46;;;;;;;3.7;3.4;;;;;;;31.01;89.43457;95387.87;;;;
2021/07/19 11:50:47;;;;;;;3.7;3.4;;;;;;;31.01;89.43457;95387.87;;;;
2021/07/19 11:51:48;;;;;;;3.7;3.4;;;;;;;31.01;89.43457;95387.87;;;;
2021/07/19 11:52:49;;;;;;;3.7;3.4;;;;;;;31.01;89.43457;95387.87;;;;
2021/07/19 11:53:52;;;;;;;3.7;3.4;;;;;;;31.01;89.43457;95387.87;;;;
2021/07/19 11:54:54;;;;;;;3.7;3.4;;;;;;;31.01;89.43457;95387.87;;;;
2021/07/19 11:55:54;;;;;;;3.7;3.4;;;;;;;31.01;89.43457;95387.87;;;;
2021/07/19 11:57:03;;;;;;;7.250001;4.3;;;;;;;30.99;86.00293;95373.08;;;;
2021/07/19 11:58:03;;;;;;;7.250001;4.3;;;;;;;30.99;86.00293;95373.08;;;;
2021/07/19 11:59:04;;;;;;;7.250001;4.3;;;;;;;30.99;86.00293;95373.08;;;;
2021/07/19 12:00:05;;;;;;;7.250001;4.3;;;;;;;30.99;86.00293;95373.08;;;;
2021/07/19 12:01:09;;;;;;;7.250001;4.3;;;;;;;30.99;86.00293;95373.08;;;;
2021/07/19 12:02:09;;;;;;;7.250001;4.3;;;;;;;30.99;86.00293;95373.08;;;;
2021/07/19 12:03:10;;;;;;;7.250001;4.3;;;;;;;30.99;86.00293;95373.08;;;;
2021/07/19 12:04:13;;;;;;;7.250001;4.3;;;;;;;30.99;86.00293;95373.08;;;;
2021/07/19 12:05:14;;;;;;;7.250001;4.3;;;;;;;30.99;86.00293;95373.08;;;;
2021/07/19 12:06:16;;;;;;;7.250001;4.3;;;;;;;30.99;86.00293;95373.08;;;;
2021/07/19 12:07:16;;;;;;;6.150001;3.9;;;;;;;30.21;83.28223;95371.23;;;;
2021/07/19 12:08:18;;;;;;;6.150001;3.9;;;;;;;30.21;83.28223;95371.23;;;;
2021/07/19 12:09:25;;;;;;;6.150001;3.9;;;;;;;30.21;83.28223;95371.23;;;;
2021/07/19 12:10:25;;;;;;;6.150001;3.9;;;;;;;30.21;83.28223;95371.23;;;;
2021/07/19 12:11:26;;;;;;;6.150001;3.9;;;;;;;30.21;83.28223;95371.23;;;;
2021/07/19 12:12:29;;;;;;;6.150001;3.9;;;;;;;30.21;83.28223;95371.23;;;;
2021/07/19 12:13:30;;;;;;;6.150001;3.9;;;;;;;30.21;83.28223;95371.23;;;;
2021/07/19 12:14:33;;;;;;;6.150001;3.9;;;;;;;30.21;83.28223;95371.23;;;;
2021/07/19 12:15:33;;;;;;;6.150001;3.9;;;;;;;30.21;83.28223;95371.23;;;;
2021/07/19 12:16:34;;;;;;;6.150001;3.9;;;;;;;30.21;83.28223;95371.23;;;;
2021/07/19 12:17:38;;;;;;;6.150001;3.9;;;;;;;30.21;83.28223;95371.23;;;;
2021/07/19 12:18:38;;;;;;;6.700001;3.85;;;;;;;30.36;84.05762;95363.92;;;;
2021/07/19 12:19:41;;;;;;;6.700001;3.85;;;;;;;30.36;84.05762;95363.92;;;;
2021/07/19 12:20:41;;;;;;;6.700001;3.85;;;;;;;30.36;84.05762;95363.92;;;;
2021/07/19 12:21:43;;;;;;;6.700001;3.85;;;;;;;30.36;84.05762;95363.92;;;;
2021/07/19 12:22:47;;;;;;;6.700001;3.85;;;;;;;30.36;84.05762;95363.92;;;;
2021/07/19 12:23:53;;;;;;;6.700001;3.85;;;;;;;30.36;84.05762;95363.92;;;;
2021/07/19 12:24:56;;;;;;;6.700001;3.85;;;;;;;30.36;84.05762;95363.92;;;;
2021/07/19 12:25:57;;;;;;;6.700001;3.85;;;;;;;30.36;84.05762;95363.92;;;;
2021/07/19 12:27:01;;;;;;;6.700001;3.85;;;;;;;30.36;84.05762;95363.92;;;;
2021/07/19 12:28:02;;;;;;;6.700001;3.85;;;;;;;30.36;84.05762;95363.92;;;;
2021/07/19 12:29:03;;;;;;;4.95;3.35;;;;;;;31.78;79.60156;95336.31;;;;
2021/07/19 12:30:05;;;;;;;4.95;3.35;;;;;;;31.78;79.60156;95336.31;;;;
2021/07/19 12:31:08;;;;;;;4.95;3.35;;;;;;;31.78;79.60156;95336.31;;;;
2021/07/19 12:32:12;;;;;;;4.95;3.35;;;;;;;31.78;79.60156;95336.31;;;;
2021/07/19 12:33:13;;;;;;;4.95;3.35;;;;;;;31.78;79.60156;95336.31;;;;
2021/07/19 12:34:22;;;;;;;4.95;3.35;;;;;;;31.78;79.60156;95336.31;;;;
2021/07/19 12:35:24;;;;;;;4.95;3.35;;;;;;;31.78;79.60156;95336.31;;;;
2021/07/19 12:36:25;;;;;;;4.95;3.35;;;;;;;31.78;79.60156;95336.31;;;;
2021/07/19 12:37:26;;;;;;;4.95;3.35;;;;;;;31.78;79.60156;95336.31;;;;
2021/07/19 12:38:27;;;;;;;4.95;3.35;;;;;;;31.78;79.60156;95336.31;;;;
2021/07/19 12:39:28;;;;;;;3.95;3.2;;;;;;;33.14;78.24121;95324.16;;;;
2021/07/19 12:40:30;;;;;;;3.95;3.2;;;;;;;33.14;78.24121;95324.16;;;;
2021/07/19 12:41:31;;;;;;;3.95;3.2;;;;;;;33.14;78.24121;95324.16;;;;
2021/07/19 12:42:33;;;;;;;3.95;3.2;;;;;;;33.14;78.24121;95324.16;;;;
2021/07/19 12:43:33;;;;;;;3.95;3.2;;;;;;;33.14;78.24121;95324.16;;;;
2021/07/19 12:44:34;;;;;;;3.95;3.2;;;;;;;33.14;78.24121;95324.16;;;;
2021/07/19 12:45:35;;;;;;;3.95;3.2;;;;;;;33.14;78.24121;95324.16;;;;
2021/07/19 12:46:36;;;;;;;3.95;3.2;;;;;;;33.14;78.24121;95324.16;;;;
2021/07/19 12:47:39;;;;;;;3.95;3.2;;;;;;;33.14;78.24121;95324.16;;;;
2021/07/19 12:48:39;;;;;;;3.95;3.2;;;;;;;33.14;78.24121;95324.16;;;;
2021/07/19 12:49:44;;;;;;;3.95;3.2;;;;;;;33.14;78.24121;95324.16;;;;
2021/07/19 12:50:46;;;;;;;5.9;3.5;;;;;;;34.44;76.73828;95322.38;;;;
2021/07/19 12:51:46;;;;;;;5.9;3.5;;;;;;;34.44;76.73828;95322.38;;;;
2021/07/19 12:52:56;;;;;;;5.9;3.5;;;;;;;34.44;76.73828;95322.38;;;;
2021/07/19 12:53:57;;;;;;;5.9;3.5;;;;;;;34.44;76.73828;95322.38;;;;
2021/07/19 12:55:00;;;;;;;5.9;3.5;;;;;;;34.44;76.73828;95322.38;;;;
2021/07/19 12:56:02;;;;;;;5.9;3.5;;;;;;;34.44;76.73828;95322.38;;;;
2021/07/19 12:57:13;;;;;;;5.9;3.5;;;;;;;34.44;76.73828;95322.38;;;;
2021/07/19 12:58:17;;;;;;;5.9;3.5;;;;;;;34.44;76.73828;95322.38;;;;
2021/07/19 12:59:17;;;;;;;5.9;3.5;;;;;;;34.44;76.73828;95322.38;;;;
2021/07/19 13:00:18;;;;;;;5.9;3.5;;;;;;;34.44;76.73828;95322.38;;;;
2021/07/19 13:01:21;;;;;;;4.3;3.35;;;;;;;34.68;71.78418;95322.78;;;;
2021/07/19 13:02:29;;;;;;;4.3;3.35;;;;;;;34.68;71.78418;95322.78;;;;
2021/07/19 13:03:30;;;;;;;4.3;3.35;;;;;;;34.68;71.78418;95322.78;;;;
2021/07/19 13:04:30;;;;;;;4.3;3.35;;;;;;;34.68;71.78418;95322.78;;;;
2021/07/19 13:05:31;;;;;;;4.3;3.35;;;;;;;34.68;71.78418;95322.78;;;;
2021/07/19 13:06:33;;;;;;;4.3;3.35;;;;;;;34.68;71.78418;95322.78;;;;
2021/07/19 13:07:34;;;;;;;4.3;3.35;;;;;;;34.68;71.78418;95322.78;;;;
2021/07/19 13:08:36;;;;;;;4.3;3.35;;;;;;;34.68;71.78418;95322.78;;;;
2021/07/19 13:09:40;;;;;;;4.3;3.35;;;;;;;34.68;71.78418;95322.78;;;;
2021/07/19 13:10:40;;;;;;;4.3;3.35;;;;;;;34.68;71.78418;95322.78;;;;
2021/07/19 13:11:43;;;;;;;4.35;3.5;;;;;;;32.58;70.33105;95318.48;;;;
2021/07/19 13:12:43;;;;;;;4.35;3.5;;;;;;;32.58;70.33105;95318.48;;;;
2021/07/19 13:13:49;;;;;;;4.35;3.5;;;;;;;32.58;70.33105;95318.48;;;;
2021/07/19 13:14:49;;;;;;;4.35;3.5;;;;;;;32.58;70.33105;95318.48;;;;
2021/07/19 13:15:50;;;;;;;4.35;3.5;;;;;;;32.58;70.33105;95318.48;;;;
2021/07/19 13:16:58;;;;;;;4.35;3.5;;;;;;;32.58;70.33105;95318.48;;;;
2021/07/19 13:18:00;;;;;;;4.35;3.5;;;;;;;32.58;70.33105;95318.48;;;;
2021/07/19 13:19:03;;;;;;;4.35;3.5;;;;;;;32.58;70.33105;95318.48;;;;
2021/07/19 13:20:04;;;;;;;4.35;3.5;;;;;;;32.58;70.33105;95318.48;;;;
2021/07/19 13:21:09;;;;;;;4.35;3.5;;;;;;;32.58;70.33105;95318.48;;;;
2021/07/19 13:22:10;;;;;;;6.300001;3.2;;;;;;;33;73.39258;95305.16;;;;
2021/07/19 13:23:11;;;;;;;6.300001;3.2;;;;;;;33;73.39258;95305.16;;;;
2021/07/19 13:24:15;;;;;;;6.300001;3.2;;;;;;;33;73.39258;95305.16;;;;
2021/07/19 13:25:16;;;;;;;6.300001;3.2;;;;;;;33;73.39258;95305.16;;;;
2021/07/19 13:26:20;;;;;;;6.300001;3.2;;;;;;;33;73.39258;95305.16;;;;
2021/07/19 13:27:20;;;;;;;6.300001;3.2;;;;;;;33;73.39258;95305.16;;;;
2021/07/19 13:28:21;;;;;;;6.300001;3.2;;;;;;;33;73.39258;95305.16;;;;
2021/07/19 13:29:23;;;;;;;6.300001;3.2;;;;;;;33;73.39258;95305.16;;;;
2021/07/19 13:30:27;;;;;;;6.300001;3.2;;;;;;;33;73.39258;95305.16;;;;
2021/07/19 13:31:30;;;;;;;6.300001;3.2;;;;;;;33;73.39258;95305.16;;;;
2021/07/19 13:32:31;;;;;;;4.55;3.05;;;;;;;34.85;69.58203;95304.85;;;;
2021/07/19 13:33:31;;;;;;;4.55;3.05;;;;;;;34.85;69.58203;95304.85;;;;
2021/07/19 13:34:33;;;;;;;4.55;3.05;;;;;;;34.85;69.58203;95304.85;;;;
2021/07/19 13:35:33;;;;;;;4.55;3.05;;;;;;;34.85;69.58203;95304.85;;;;
2021/07/19 13:36:37;;;;;;;4.55;3.05;;;;;;;34.85;69.58203;95304.85;;;;
2021/07/19 13:37:38;;;;;;;4.55;3.05;;;;;;;34.85;69.58203;95304.85;;;;
2021/07/19 13:38:42;;;;;;;4.55;3.05;;;;;;;34.85;69.58203;95304.85;;;;
2021/07/19 13:39:43;;;;;;;4.55;3.05;;;;;;;34.85;69.58203;95304.85;;;;
2021/07/19 13:40:44;;;;;;;4.55;3.05;;;;;;;34.85;69.58203;95304.85;;;;
2021/07/19 13:41:47;;;;;;;4.55;3.05;;;;;;;34.85;69.58203;95304.85;;;;
2021/07/19 13:42:47;;;;;;;4.55;3.05;;;;;;;34.85;69.58203;95304.85;;;;
2021/07/19 13:43:50;;;;;;;4.450001;3.15;;;;;;;36.54;66.1084;95298.99;;;;
2021/07/19 13:44:59;;;;;;;4.450001;3.15;;;;;;;36.54;66.1084;95298.99;;;;
2021/07/19 13:46:01;;;;;;;4.450001;3.15;;;;;;;36.54;66.1084;95298.99;;;;
2021/07/19 13:47:01;;;;;;;4.450001;3.15;;;;;;;36.54;66.1084;95298.99;;;;
2021/07/19 13:48:03;;;;;;;4.450001;3.15;;;;;;;36.54;66.1084;95298.99;;;;
2021/07/19 13:49:04;;;;;;;4.450001;3.15;;;;;;;36.54;66.1084;95298.99;;;;
2021/07/19 13:50:04;;;;;;;4.450001;3.15;;;;;;;36.54;66.1084;95298.99;;;;
2021/07/19 13:51:06;;;;;;;4.450001;3.15;;;;;;;36.54;66.1084;95298.99;;;;
2021/07/19 13:52:07;;;;;;;4.450001;3.15;;;;;;;36.54;66.1084;95298.99;;;;
2021/07/19 13:53:08;;;;;;;4.450001;3.15;;;;;;;36.54;66.1084;95298.99;;;;
2021/07/19 13:54:08;;;;;;;6.4;3.1;;;;;;;37.01;63.78516;95298.19;;;;
2021/07/19 13:55:09;;;;;;;6.4;3.1;;;;;;;37.01;63.78516;95298.19;;;;
2021/07/19 13:56:11;;;;;;;6.4;3.1;;;;;;;37.01;63.78516;95298.19;;;;
2021/07/19 13:57:13;;;;;;;6.4;3.1;;;;;;;37.01;63.78516;95298.19;;;;
2021/07/19 13:58:13;;;;;;;6.4;3.1;;;;;;;37.01;63.78516;95298.19;;;;
2021/07/19 13:59:14;;;;;;;6.4;3.1;;;;;;;37.01;63.78516;95298.19;;;;
2021/07/19 14:00:17;;;;;;;6.4;3.1;;;;;;;37.01;63.78516;95298.19;;;;
2021/07/19 14:01:17;;;;;;;6.4;3.1;;;;;;;37.01;63.78516;95298.19;;;;
2021/07/19 14:02:18;;;;;;;6.4;3.1;;;;;;;37.01;63.78516;95298.19;;;;
2021/07/19 14:03:18;;;;;;;6.4;3.1;;;;;;;37.01;63.78516;95298.19;;;;
2021/07/19 14:04:19;;;;;;;6.4;3.1;;;;;;;37.01;63.78516;95298.19;;;;
2021/07/19 14:05:20;;;;;;;4.75;3;;;;;;;36.22;62.78906;95295.72;;;;
2021/07/19 14:06:21;;;;;;;4.75;3;;;;;;;36.22;62.78906;95295.72;;;;
2021/07/19 14:07:21;;;;;;;4.75;3;;;;;;;36.22;62.78906;95295.72;;;;
2021/07/19 14:08:23;;;;;;;4.75;3;;;;;;;36.22;62.78906;95295.72;;;;
2021/07/19 14:09:24;;;;;;;4.75;3;;;;;;;36.22;62.78906;95295.72;;;;
2021/07/19 14:10:25;;;;;;;4.75;3;;;;;;;36.22;62.78906;95295.72;;;;
2021/07/19 14:11:26;;;;;;;4.75;3;;;;;;;36.22;62.78906;95295.72;;;;
2021/07/19 14:12:26;;;;;;;4.75;3;;;;;;;36.22;62.78906;95295.72;;;;
2021/07/19 14:13:27;;;;;;;4.75;3;;;;;;;36.22;62.78906;95295.72;;;;
2021/07/19 14:14:28;;;;;;;4.75;3;;;;;;;36.22;62.78906;95295.72;;;;
2021/07/19 14:15:29;;;;;;;4;3.3;;;;;;;37.28;61.30273;95294.74;;;;
2021/07/19 14:16:30;;;;;;;4;3.3;;;;;;;37.28;61.30273;95294.74;;;;
2021/07/19 14:17:31;;;;;;;4;3.3;;;;;;;37.28;61.30273;95294.74;;;;
2021/07/19 14:18:31;;;;;;;4;3.3;;;;;;;37.28;61.30273;95294.74;;;;
2021/07/19 14:19:32;;;;;;;4;3.3;;;;;;;37.28;61.30273;95294.74;;;;
2021/07/19 14:20:33;;;;;;;4;3.3;;;;;;;37.28;61.30273;95294.74;;;;
2021/07/19 14:21:34;;;;;;;4;3.3;;;;;;;37.28;61.30273;95294.74;;;;
2021/07/19 14:22:36;;;;;;;4;3.3;;;;;;;37.28;61.30273;95294.74;;;;
2021/07/19 14:23:36;;;;;;;4;3.3;;;;;;;37.28;61.30273;95294.74;;;;
2021/07/19 14:24:37;;;;;;;4;3.3;;;;;;;37.28;61.30273;95294.74;;;;
2021/07/19 14:25:40;;;;;;;4;3.3;;;;;;;37.28;61.30273;95294.74;;;;
2021/07/19 14:26:42;;;;;;;3.85;3.5;;;;;;;35.02;60.50391;95289.36;;;;
2021/07/19 14:27:42;;;;;;;3.85;3.5;;;;;;;35.02;60.50391;95289.36;;;;
2021/07/19 14:28:43;;;;;;;3.85;3.5;;;;;;;35.02;60.50391;95289.36;;;;
2021/07/19 14:29:44;;;;;;;3.85;3.5;;;;;;;35.02;60.50391;95289.36;;;;
2021/07/19 14:30:44;;;;;;;3.85;3.5;;;;;;;35.02;60.50391;95289.36;;;;
2021/07/19 14:31:51;;;;;;;3.85;3.5;;;;;;;35.02;60.50391;95289.36;;;;
2021/07/19 14:32:52;;;;;;;3.85;3.5;;;;;;;35.02;60.50391;95289.36;;;;
2021/07/19 14:33:53;;;;;;;3.85;3.5;;;;;;;35.02;60.50391;95289.36;;;;
2021/07/19 14:34:55;;;;;;;3.85;3.5;;;;;;;35.02;60.50391;95289.36;;;;
2021/07/19 14:35:55;;;;;;;3.85;3.5;;;;;;;35.02;60.50391;95289.36;;;;
2021/07/19 14:36:56;;;;;;;5.25;3.4;;;;;;;32.17;61.49512;95277.22;;;;
2021/07/19 14:37:57;;;;;;;5.25;3.4;;;;;;;32.17;61.49512;95277.22;;;;
2021/07/19 14:38:58;;;;;;;5.25;3.4;;;;;;;32.17;61.49512;95277.22;;;;
2021/07/19 14:39:58;;;;;;;5.25;3.4;;;;;;;32.17;61.49512;95277.22;;;;
2021/07/19 14:40:59;;;;;;;5.25;3.4;;;;;;;32.17;61.49512;95277.22;;;;
2021/07/19 14:42:00;;;;;;;5.25;3.4;;;;;;;32.17;61.49512;95277.22;;;;
2021/07/19 14:43:01;;;;;;;5.25;3.4;;;;;;;32.17;61.49512;95277.22;;;;
2021/07/19 14:44:02;;;;;;;5.25;3.4;;;;;;;32.17;61.49512;95277.22;;;;
2021/07/19 14:45:03;;;;;;;5.25;3.4;;;;;;;32.17;61.49512;95277.22;;;;
2021/07/19 14:46:04;;;;;;;5.25;3.4;;;;;;;32.17;61.49512;95277.22;;;;
2021/07/19 14:47:05;;;;;;;4.95;3.55;;;;;;;32.59;63.5918;95263.75;;;;
2021/07/19 14:48:07;;;;;;;4.95;3.55;;;;;;;32.59;63.5918;95263.75;;;;
2021/07/19 14:49:08;;;;;;;4.95;3.55;;;;;;;32.59;63.5918;95263.75;;;;
2021/07/19 14:50:08;;;;;;;4.95;3.55;;;;;;;32.59;63.5918;95263.75;;;;
2021/07/19 14:51:12;;;;;;;4.95;3.55;;;;;;;32.59;63.5918;95263.75;;;;
2021/07/19 14:52:12;;;;;;;4.95;3.55;;;;;;;32.59;63.5918;95263.75;;;;
2021/07/19 14:53:13;;;;;;;4.95;3.55;;;;;;;32.59;63.5918;95263.75;;;;
2021/07/19 14:54:14;;;;;;;4.95;3.55;;;;;;;32.59;63.5918;95263.75;;;;
2021/07/19 14:55:15;;;;;;;4.95;3.55;;;;;;;32.59;63.5918;95263.75;;;;
2021/07/19 14:56:16;;;;;;;4.95;3.55;;;;;;;32.59;63.5918;95263.75;;;;
2021/07/19 14:57:17;;;;;;;4.95;3.55;;;;;;;32.59;63.5918;95263.75;;;;
2021/07/19 14:58:18;;;;;;;4.7;3.65;;;;;;;33.85;62.33105;95250.05;;;;
2021/07/19 14:59:18;;;;;;;4.7;3.65;;;;;;;33.85;62.33105;95250.05;;;;
2021/07/19 15:00:19;;;;;;;4.7;3.65;;;;;;;33.85;62.33105;95250.05;;;;
2021/07/19 15:01:20;;;;;;;4.7;3.65;;;;;;;33.85;62.33105;95250.05;;;;
2021/07/19 15:02:20;;;;;;;4.7;3.65;;;;;;;33.85;62.33105;95250.05;;;;
2021/07/19 15:03:23;;;;;;;4.7;3.65;;;;;;;33.85;62.33105;95250.05;;;;
2021/07/19 15:04:24;;;;;;;4.7;3.65;;;;;;;33.85;62.33105;95250.05;;;;
2021/07/19 15:05:24;;;;;;;4.7;3.65;;;;;;;33.85;62.33105;95250.05;;;;
2021/07/19 15:06:25;;;;;;;4.7;3.65;;;;;;;33.85;62.33105;95250.05;;;;
2021/07/19 15:07:25;;;;;;;4.7;3.65;;;;;;;33.85;62.33105;95250.05;;;;
2021/07/19 15:08:26;;;;;;;4.7;3.65;;;;;;;33.85;62.33105;95250.05;;;;
2021/07/19 15:09:27;;;;;;;5.299999;3.5;;;;;;;35.07;60.5332;95244.87;;;;
2021/07/19 15:10:27;;;;;;;5.299999;3.5;;;;;;;35.07;60.5332;95244.87;;;;
2021/07/19 15:11:28;;;;;;;5.299999;3.5;;;;;;;35.07;60.5332;95244.87;;;;
2021/07/19 15:12:28;;;;;;;5.299999;3.5;;;;;;;35.07;60.5332;95244.87;;;;
2021/07/19 15:13:29;;;;;;;5.299999;3.5;;;;;;;35.07;60.5332;95244.87;;;;
2021/07/19 15:14:30;;;;;;;5.299999;3.5;;;;;;;35.07;60.5332;95244.87;;;;
2021/07/19 15:15:30;;;;;;;5.299999;3.5;;;;;;;35.07;60.5332;95244.87;;;;
2021/07/19 15:16:31;;;;;;;5.299999;3.5;;;;;;;35.07;60.5332;95244.87;;;;
2021/07/19 15:17:32;;;;;;;5.299999;3.5;;;;;;;35.07;60.5332;95244.87;;;;
2021/07/19 15:18:32;;;;;;;5.299999;3.5;;;;;;;35.07;60.5332;95244.87;;;;
2021/07/19 15:19:33;;;;;;;5.600001;3.95;;;;;;;35.28;58.25391;95245.19;;;;
2021/07/19 15:20:34;;;;;;;5.600001;3.95;;;;;;;35.28;58.25391;95245.19;;;;
2021/07/19 15:21:34;;;;;;;5.600001;3.95;;;;;;;35.28;58.25391;95245.19;;;;
2021/07/19 15:22:35;;;;;;;5.600001;3.95;;;;;;;35.28;58.25391;95245.19;;;;
2021/07/19 15:23:36;;;;;;;5.600001;3.95;;;;;;;35.28;58.25391;95245.19;;;;
2021/07/19 15:24:36;;;;;;;5.600001;3.95;;;;;;;35.28;58.25391;95245.19;;;;
2021/07/19 15:25:37;;;;;;;5.600001;3.95;;;;;;;35.28;58.25391;95245.19;;;;
2021/07/19 15:26:38;;;;;;;5.600001;3.95;;;;;;;35.28;58.25391;95245.19;;;;
2021/07/19 15:27:39;;;;;;;5.600001;3.95;;;;;;;35.28;58.25391;95245.19;;;;
2021/07/19 15:28:40;;;;;;;5.600001;3.95;;;;;;;35.28;58.25391;95245.19;;;;
2021/07/19 15:29:40;;;;;;;5.600001;3.95;;;;;;;35.28;58.25391;95245.19;;;;
2021/07/19 15:30:41;;;;;;;4.599999;3.65;;;;;;;34.98;57.375;95238;;;;
2021/07/19 15:31:42;;;;;;;4.599999;3.65;;;;;;;34.98;57.375;95238;;;;
2021/07/19 15:32:42;;;;;;;4.599999;3.65;;;;;;;34.98;57.375;95238;;;;
2021/07/19 15:33:44;;;;;;;4.599999;3.65;;;;;;;34.98;57.375;95238;;;;
2021/07/19 15:34:45;;;;;;;4.599999;3.65;;;;;;;34.98;57.375;95238;;;;
2021/07/19 15:35:46;;;;;;;4.599999;3.65;;;;;;;34.98;57.375;95238;;;;
2021/07/19 15:36:46;;;;;;;4.599999;3.65;;;;;;;34.98;57.375;95238;;;;
2021/07/19 15:37:47;;;;;;;4.599999;3.65;;;;;;;34.98;57.375;95238;;;;
2021/07/19 15:38:49;;;;;;;4.599999;3.65;;;;;;;34.98;57.375;95238;;;;
2021/07/19 15:39:50;;;;;;;4.599999;3.65;;;;;;;34.98;57.375;95238;;;;
2021/07/19 15:40:51;;;;;;;4.7;3.750001;;;;;;;34.97;57.26172;95242.83;;;;
2021/07/19 15:41:51;;;;;;;4.7;3.750001;;;;;;;34.97;57.26172;95242.83;;;;
2021/07/19 15:42:52;;;;;;;4.7;3.750001;;;;;;;34.97;57.26172;95242.83;;;;
2021/07/19 15:43:55;;;;;;;4.7;3.750001;;;;;;;34.97;57.26172;95242.83;;;;
2021/07/19 15:44:55;;;;;;;4.7;3.750001;;;;;;;34.97;57.26172;95242.83;;;;
2021/07/19 15:45:56;;;;;;;4.7;3.750001;;;;;;;34.97;57.26172;95242.83;;;;
2021/07/19 15:46:57;;;;;;;4.7;3.750001;;;;;;;34.97;57.26172;95242.83;;;;
2021/07/19 15:47:57;;;;;;;4.7;3.750001;;;;;;;34.97;57.26172;95242.83;;;;